Time;durP1;ratioP1;P1;durP2;ratioP2;P2;SDS_P1;SDS_P2;PMS_P1;PMS_P2;Temp;Humidity;BMP_temperature;BMP_pressure;BME280_temperature;BME280_humidity;BME280_pressure;Samples;Min_cycle;Max_cycle;Signal;HPM_P1;HPM_P2
2022/06/18 00:02:00;;;;;;;10.20;5.20;;;;;;;18.59;53.85;99670.34;235782;1203;139892;-57
2022/06/18 00:07:06;;;;;;;9.70;5.30;;;;;;;18.55;53.97;99668.56;235686;1203;138800;-57
2022/06/18 00:17:33;;;;;;;11.50;5.20;;;;;;;18.47;54.01;99665.06;235933;1202;139376;-58
2022/06/18 00:22:36;;;;;;;11.60;5.60;;;;;;;18.46;54.12;99663.90;236044;1202;140034;-56
2022/06/18 00:27:39;;;;;;;11.60;5.50;;;;;;;18.39;54.07;99663.90;235914;1203;139849;-58
2022/06/18 00:32:42;;;;;;;13.20;5.70;;;;;;;18.30;54.30;99665.11;235985;1202;140424;-57
2022/06/18 00:37:48;;;;;;;11.40;6.00;;;;;;;18.25;54.43;99663.30;235678;1203;139801;-58
2022/06/18 00:42:51;;;;;;;12.00;6.50;;;;;;;18.18;54.70;99662.84;235969;1203;139126;-56
2022/06/18 00:48:08;;;;;;;9.00;5.80;;;;;;;18.10;54.59;99657.77;235930;1203;138816;-57
2022/06/18 00:53:21;;;;;;;12.20;5.80;;;;;;;18.05;54.64;99658.20;235473;1202;139149;-57
2022/06/18 00:58:30;;;;;;;10.20;5.90;;;;;;;17.98;55.29;99657.66;235522;1203;138972;-61
2022/06/18 01:03:38;;;;;;;10.00;6.40;;;;;;;17.94;55.30;99657.67;235751;1202;140036;-56
2022/06/18 01:08:42;;;;;;;9.80;6.10;;;;;;;17.88;55.41;99660.97;235682;1203;139057;-56
2022/06/18 01:13:45;;;;;;;13.70;6.90;;;;;;;17.84;55.42;99655.98;235701;1202;140764;-58
2022/06/18 01:18:50;;;;;;;12.40;6.20;;;;;;;17.86;55.56;99658.33;235785;1202;139318;-58
2022/06/18 01:24:02;;;;;;;11.50;6.00;;;;;;;17.87;55.61;99661.23;235631;1203;140456;-59
2022/06/18 01:29:07;;;;;;;14.90;5.90;;;;;;;17.82;55.57;99653.59;235550;1204;139549;-56
2022/06/18 01:34:10;;;;;;;9.60;5.80;;;;;;;17.77;55.92;99650.42;235496;1204;139949;-56
2022/06/18 01:39:25;;;;;;;10.40;6.00;;;;;;;17.76;55.80;99647.45;235798;1203;139412;-57
2022/06/18 01:44:54;;;;;;;11.60;6.20;;;;;;;17.70;55.70;99643.41;235731;1202;139307;-58
2022/06/18 01:50:13;;;;;;;10.90;5.70;;;;;;;17.61;55.78;99642.00;235787;1203;140383;-58
2022/06/18 01:55:27;;;;;;;10.50;5.80;;;;;;;17.54;55.97;99633.60;235794;1203;140328;-58
2022/06/18 02:00:31;;;;;;;13.00;6.30;;;;;;;17.47;56.18;99629.37;235748;1203;139544;-57
2022/06/18 02:05:37;;;;;;;12.50;6.20;;;;;;;17.43;56.32;99642.03;235809;1203;139159;-55
2022/06/18 02:10:47;;;;;;;13.50;6.40;;;;;;;17.39;56.40;99637.18;236061;1203;140247;-56
2022/06/18 02:15:52;;;;;;;8.50;6.00;;;;;;;17.36;56.42;99628.95;235961;1202;139524;-58
2022/06/18 02:20:56;;;;;;;10.30;5.90;;;;;;;17.31;56.66;99631.33;235813;1203;139787;-59
2022/06/18 02:26:02;;;;;;;14.10;6.80;;;;;;;17.29;56.79;99631.90;235712;1201;139468;-57
2022/06/18 02:31:07;;;;;;;11.20;6.00;;;;;;;17.29;57.03;99627.76;235177;1202;139918;-55
2022/06/18 02:36:18;;;;;;;11.20;6.40;;;;;;;17.30;56.81;99624.77;235930;1203;139476;-59
2022/06/18 02:41:25;;;;;;;13.20;5.70;;;;;;;17.32;57.15;99622.35;234170;1203;138859;-56
2022/06/18 02:46:28;;;;;;;11.00;6.70;;;;;;;17.28;56.95;99621.37;234498;1203;138931;-58
2022/06/18 02:51:35;;;;;;;29.70;21.80;;;;;;;17.26;57.44;99619.89;235934;1203;139402;-58
2022/06/18 02:56:39;;;;;;;11.20;6.70;;;;;;;17.40;57.47;99622.39;235667;1203;139552;-60
2022/06/18 03:01:42;;;;;;;13.00;6.20;;;;;;;17.38;57.45;99622.52;235904;1203;139405;-56
2022/06/18 03:06:45;;;;;;;11.50;6.60;;;;;;;17.33;57.39;99625.26;235923;1201;138359;-57
2022/06/18 03:12:06;;;;;;;13.80;9.70;;;;;;;17.22;57.25;99623.61;235771;1202;139230;-58
2022/06/18 03:17:10;;;;;;;9.00;6.10;;;;;;;17.17;57.26;99620.60;235918;1203;139515;-57
2022/06/18 03:22:19;;;;;;;8.80;6.20;;;;;;;17.09;57.40;99626.46;236018;1203;138971;-58
2022/06/18 03:27:22;;;;;;;9.00;6.00;;;;;;;17.04;57.61;99623.65;235721;1203;138996;-57
2022/06/18 03:32:29;;;;;;;10.00;6.50;;;;;;;17.06;57.57;99625.23;235762;1202;139667;-58
2022/06/18 03:37:32;;;;;;;10.40;6.70;;;;;;;17.12;57.77;99627.30;235923;1203;141442;-58
2022/06/18 03:42:36;;;;;;;9.10;6.50;;;;;;;17.20;57.93;99629.02;235599;1203;139834;-56
2022/06/18 03:47:39;;;;;;;103.20;81.20;;;;;;;17.29;58.00;99630.08;233787;1203;139097;-60
2022/06/18 03:52:42;;;;;;;13.50;7.90;;;;;;;17.29;57.87;99624.64;235819;1203;139170;-59
2022/06/18 03:57:45;;;;;;;10.90;6.10;;;;;;;17.29;57.70;99625.08;235710;1203;139156;-59
2022/06/18 04:02:51;;;;;;;16.80;9.80;;;;;;;17.30;58.17;99611.91;235461;1202;140035;-59
2022/06/18 04:07:54;;;;;;;11.30;6.40;;;;;;;17.46;57.90;99620.77;235884;1203;138906;-59
2022/06/18 04:13:15;;;;;;;10.60;5.40;;;;;;;17.58;57.99;99615.55;235827;1203;141332;-60
2022/06/18 04:18:37;;;;;;;10.30;5.70;;;;;;;17.64;57.86;99616.13;235681;1203;139222;-59
2022/06/18 04:23:44;;;;;;;7.70;5.10;;;;;;;17.74;57.68;99615.84;235545;1203;139061;-59
2022/06/18 04:28:49;;;;;;;14.70;6.00;;;;;;;17.80;57.48;99626.27;235609;1204;139748;-57
2022/06/18 04:33:53;;;;;;;7.30;5.00;;;;;;;17.87;57.74;99618.69;235434;1203;139500;-59
2022/06/18 04:39:12;;;;;;;8.00;4.80;;;;;;;17.91;57.49;99616.41;235770;1203;139080;-57
2022/06/18 04:44:45;;;;;;;8.70;5.00;;;;;;;18.07;57.65;99616.52;235798;1203;138519;-58
2022/06/18 04:49:53;;;;;;;11.80;5.20;;;;;;;18.22;57.13;99623.14;235665;1203;138402;-58
2022/06/18 04:54:57;;;;;;;10.30;4.60;;;;;;;18.32;57.27;99624.66;235685;1203;139815;-58
2022/06/18 05:00:00;;;;;;;8.90;4.60;;;;;;;18.45;57.03;99620.09;235751;1202;139948;-58
2022/06/18 05:05:21;;;;;;;8.60;4.70;;;;;;;18.54;56.93;99618.86;235750;1203;139343;-56
2022/06/18 05:10:51;;;;;;;7.80;4.50;;;;;;;18.67;56.70;99626.70;235796;1204;138897;-56
2022/06/18 05:16:14;;;;;;;7.70;4.30;;;;;;;18.78;56.52;99624.10;235896;1202;140699;-58
2022/06/18 05:21:17;;;;;;;6.90;4.00;;;;;;;18.86;56.36;99623.78;235700;1204;139240;-58
2022/06/18 05:26:20;;;;;;;6.20;3.60;;;;;;;18.92;56.00;99619.32;235746;1204;138571;-57
2022/06/18 05:31:23;;;;;;;7.70;3.50;;;;;;;19.00;55.88;99624.76;235101;1203;139859;-55
2022/06/18 05:36:26;;;;;;;6.70;3.70;;;;;;;19.06;55.73;99622.96;234620;1203;139738;-57
2022/06/18 05:41:32;;;;;;;6.20;3.70;;;;;;;19.13;55.53;99625.59;235633;1203;139447;-58
2022/06/18 05:46:36;;;;;;;4.60;3.10;;;;;;;19.21;55.42;99626.88;235872;1203;138623;-58
2022/06/18 05:51:39;;;;;;;6.80;3.40;;;;;;;19.31;55.12;99628.16;235694;1203;138607;-57
2022/06/18 05:56:43;;;;;;;9.70;4.10;;;;;;;19.42;55.14;99627.91;234538;1203;138493;-57
2022/06/18 06:02:06;;;;;;;5.40;3.30;;;;;;;19.51;54.92;99623.83;235736;1204;141044;-57
2022/06/18 06:07:18;;;;;;;7.20;3.30;;;;;;;19.61;54.73;99626.57;235753;1204;139281;-58
2022/06/18 06:12:22;;;;;;;5.60;3.30;;;;;;;19.68;54.53;99620.52;235747;1204;139151;-57
2022/06/18 06:17:26;;;;;;;6.70;3.30;;;;;;;19.77;54.32;99622.00;235737;1203;140442;-57
2022/06/18 06:22:29;;;;;;;8.40;3.40;;;;;;;19.86;54.24;99614.94;235906;1203;139190;-55
2022/06/18 06:27:31;;;;;;;6.00;2.90;;;;;;;20.00;54.13;99611.52;235524;1203;139255;-58
2022/06/18 06:32:34;;;;;;;4.60;3.00;;;;;;;20.08;53.97;99613.81;235711;1203;141295;-60
2022/06/18 06:37:37;;;;;;;6.80;3.50;;;;;;;20.18;53.88;99610.54;235760;1203;139180;-58
2022/06/18 06:42:43;;;;;;;6.30;3.10;;;;;;;20.25;53.72;99603.35;235716;1203;139055;-57
2022/06/18 06:47:47;;;;;;;6.00;2.80;;;;;;;20.36;53.56;99600.16;235342;1203;138940;-53
2022/06/18 06:52:50;;;;;;;8.60;3.00;;;;;;;20.49;53.56;99595.73;235704;1203;139859;-58
2022/06/18 06:57:53;;;;;;;8.70;3.00;;;;;;;20.59;53.27;99599.14;235758;1202;139844;-56
2022/06/18 07:02:56;;;;;;;5.50;2.80;;;;;;;20.70;52.98;99600.45;235719;1203;138862;-57
2022/06/18 07:08:03;;;;;;;6.80;2.80;;;;;;;20.79;52.76;99595.13;235775;1204;139694;-56
2022/06/18 07:13:07;;;;;;;6.80;3.10;;;;;;;20.88;52.55;99594.94;235761;1203;138856;-55
2022/06/18 07:18:16;;;;;;;5.60;2.90;;;;;;;20.98;52.56;99590.48;235755;1203;138881;-57
2022/06/18 07:23:19;;;;;;;5.00;2.90;;;;;;;21.14;52.39;99587.87;235713;1202;138983;-57
2022/06/18 07:28:22;;;;;;;4.80;2.80;;;;;;;21.24;52.07;99582.41;235904;1204;138744;-56
2022/06/18 07:33:28;;;;;;;6.70;2.50;;;;;;;21.37;51.84;99581.31;235714;1203;139311;-57
2022/06/18 07:38:30;;;;;;;6.80;2.50;;;;;;;21.46;51.66;99581.14;235770;1204;139687;-57
2022/06/18 07:43:38;;;;;;;4.60;2.70;;;;;;;21.60;51.31;99585.99;235710;1203;139539;-58
2022/06/18 07:48:43;;;;;;;5.20;2.40;;;;;;;21.68;51.04;99587.65;235658;1203;139352;-61
2022/06/18 07:53:46;;;;;;;;;;;;;;;21.81;50.55;99594.55;235734;1203;138615;-61
2022/06/18 07:58:50;;;;;;;5.70;1.80;;;;;;;21.89;50.28;99601.98;235961;1203;125149;-63
2022/06/18 08:03:53;;;;;;;5.50;1.90;;;;;;;22.00;49.90;99596.94;234852;1203;138790;-56
2022/06/18 08:08:57;;;;;;;4.90;1.80;;;;;;;22.11;49.59;99602.34;235796;1203;138741;-60
2022/06/18 08:14:00;;;;;;;5.30;1.70;;;;;;;22.26;49.35;99592.20;235908;1202;138602;-57
2022/06/18 08:19:03;;;;;;;5.00;2.00;;;;;;;22.40;48.88;99601.54;235721;1204;139628;-58
2022/06/18 08:24:10;;;;;;;5.80;2.10;;;;;;;22.50;48.55;99596.89;235699;1204;140250;-61
2022/06/18 08:29:19;;;;;;;5.10;1.80;;;;;;;22.61;48.15;99590.36;235734;1203;139746;-61
2022/06/18 08:34:23;;;;;;;3.00;1.30;;;;;;;22.77;47.82;99583.31;235819;1204;139019;-62
2022/06/18 08:39:33;;;;;;;4.10;1.70;;;;;;;22.85;47.37;99577.90;235711;1203;139320;-62
2022/06/18 08:45:01;;;;;;;4.90;1.50;;;;;;;22.97;46.93;99571.97;235715;1203;138752;-61
2022/06/18 08:50:37;;;;;;;3.50;1.30;;;;;;;23.14;46.56;99569.98;235758;1203;138688;-61
2022/06/18 08:55:51;;;;;;;2.40;1.40;;;;;;;23.23;45.71;99564.11;235728;1202;139436;-61
2022/06/18 09:01:10;;;;;;;2.90;1.30;;;;;;;23.32;45.38;99548.52;235796;1203;139447;-60
2022/06/18 09:06:28;;;;;;;4.80;2.40;;;;;;;23.44;45.01;99556.30;235770;1203;138539;-60
2022/06/18 09:11:48;;;;;;;5.10;1.40;;;;;;;23.49;44.63;99549.94;235766;1203;139050;-64
2022/06/18 09:17:08;;;;;;;4.00;1.50;;;;;;;23.62;44.39;99546.23;235410;1203;139130;-64
2022/06/18 09:22:17;;;;;;;1.90;1.50;;;;;;;23.75;44.01;99542.48;235516;1203;138667;-56
2022/06/18 09:27:27;;;;;;;2.60;1.40;;;;;;;23.89;43.92;99529.89;235657;1203;161525;-57
2022/06/18 09:32:48;;;;;;;3.00;1.50;;;;;;;24.04;43.86;99525.48;234077;1202;139452;-52
2022/06/18 09:38:05;;;;;;;3.30;2.30;;;;;;;24.23;43.63;99516.85;235667;1203;139090;-56
2022/06/18 09:43:53;;;;;;;6.90;2.30;;;;;;;24.36;43.36;99504.55;235747;1203;138595;-56
2022/06/18 09:48:56;;;;;;;5.60;3.10;;;;;;;24.50;43.37;99500.90;235672;1203;140203;-55
2022/06/18 09:54:05;;;;;;;2.80;1.50;;;;;;;24.71;43.26;99505.88;235798;1203;139588;-55
2022/06/18 09:59:16;;;;;;;2.70;1.50;;;;;;;24.81;42.57;99511.77;235622;1203;138641;-56
2022/06/18 10:10:06;;;;;;;6.20;4.50;;;;;;;24.88;41.93;99498.67;235762;1202;139302;-56
2022/06/18 10:15:11;;;;;;;3.50;2.40;;;;;;;25.04;41.75;99486.87;235705;1203;140266;-53
2022/06/18 10:20:25;;;;;;;3.60;2.00;;;;;;;25.15;41.42;99472.70;235743;1202;139618;-54
2022/06/18 10:25:36;;;;;;;2.10;1.40;;;;;;;25.36;40.96;99468.37;235733;1203;139087;-55
2022/06/18 10:30:45;;;;;;;3.80;1.60;;;;;;;25.48;40.85;99452.45;235734;1202;138933;-56
2022/06/18 10:36:07;;;;;;;1.80;1.30;;;;;;;25.47;40.52;99449.86;235696;1202;139194;-57
2022/06/18 10:41:30;;;;;;;113.30;82.40;;;;;;;25.44;40.59;99445.66;235003;1203;140553;-56
2022/06/18 10:46:33;;;;;;;9.60;7.60;;;;;;;25.45;40.29;99445.93;235187;1203;139591;-58
2022/06/18 10:51:48;;;;;;;5.40;2.50;;;;;;;25.51;40.06;99443.75;233487;1203;139625;-54
2022/06/18 10:56:54;;;;;;;5.90;2.20;;;;;;;25.62;39.98;99443.88;235390;1204;140002;-56
2022/06/18 11:02:13;;;;;;;2.80;1.50;;;;;;;25.83;40.17;99435.39;235773;1202;139640;-57
2022/06/18 11:07:28;;;;;;;2.50;1.30;;;;;;;26.11;39.72;99441.66;235769;1202;138826;-58
2022/06/18 11:12:35;;;;;;;3.90;1.30;;;;;;;26.28;39.88;99427.79;235757;1202;139003;-57
2022/06/18 11:17:44;;;;;;;4.20;1.30;;;;;;;26.48;39.22;99430.61;235778;1202;139127;-58
2022/06/18 11:22:53;;;;;;;2.10;1.40;;;;;;;26.50;38.70;99428.46;235825;1203;138648;-57
2022/06/18 11:28:00;;;;;;;1.40;1.00;;;;;;;26.62;38.25;99440.06;235742;1202;139089;-57
2022/06/18 11:33:04;;;;;;;44.80;32.70;;;;;;;26.74;38.09;99429.15;235732;1202;139631;-58
2022/06/18 11:38:28;;;;;;;3.40;2.50;;;;;;;26.92;38.16;99421.50;235768;1203;139304;-58
2022/06/18 11:43:43;;;;;;;2.20;2.00;;;;;;;27.19;37.57;99421.20;235765;1202;139183;-58
2022/06/18 11:49:07;;;;;;;3.90;1.40;;;;;;;27.32;37.52;99401.60;235811;1203;139102;-57
2022/06/18 11:54:44;;;;;;;2.90;1.20;;;;;;;27.48;37.31;99394.49;235844;1201;138927;-57
2022/06/18 11:59:55;;;;;;;47.40;42.60;;;;;;;27.71;36.85;99389.73;235788;1203;140226;-57
2022/06/18 12:05:13;;;;;;;4.50;3.40;;;;;;;27.87;36.77;99372.42;235818;1203;139024;-56
2022/06/18 12:10:18;;;;;;;3.30;1.20;;;;;;;28.14;36.49;99374.55;235950;1203;140322;-55
2022/06/18 12:15:47;;;;;;;2.20;1.10;;;;;;;28.35;36.35;99365.90;235830;1202;139615;-56
2022/06/18 12:21:03;;;;;;;1.10;0.90;;;;;;;28.68;35.73;99357.36;235756;1203;138943;-58
2022/06/18 12:26:21;;;;;;;1.70;0.80;;;;;;;28.85;34.86;99353.33;235803;1201;139440;-58
2022/06/18 12:31:56;;;;;;;3.00;1.10;;;;;;;29.07;34.22;99341.04;235832;1203;139055;-58
2022/06/18 12:37:26;;;;;;;1.20;0.90;;;;;;;29.26;34.18;99330.94;235635;1201;139592;-55
2022/06/18 12:42:35;;;;;;;1.50;1.00;;;;;;;29.52;33.99;99327.06;235814;1202;139348;-57
2022/06/18 12:48:14;;;;;;;2.10;0.70;;;;;;;29.69;33.64;99324.86;235885;1203;138676;-58
2022/06/18 12:53:35;;;;;;;1.90;1.10;;;;;;;29.79;33.32;99318.41;235883;1203;139279;-58
2022/06/18 12:59:19;;;;;;;1.00;0.90;;;;;;;30.04;33.26;99322.22;235965;1203;139435;-57
2022/06/18 13:04:35;;;;;;;;;;;;;;;30.36;33.48;99310.20;235853;1203;138954;-57
2022/06/18 13:09:50;;;;;;;3.70;1.30;;;;;;;30.52;32.64;99295.89;235834;1202;126017;-57
2022/06/18 13:15:02;;;;;;;2.90;1.50;;;;;;;30.57;32.35;99294.80;235909;1202;139051;-56
2022/06/18 13:20:18;;;;;;;3.70;1.40;;;;;;;30.60;32.64;99284.36;235882;1203;139852;-57
2022/06/18 13:31:28;;;;;;;21.40;15.60;;;;;;;30.67;31.99;99273.70;235080;1202;138514;-57
2022/06/18 13:36:46;;;;;;;8.70;5.80;;;;;;;30.72;31.82;99276.89;235703;1203;139322;-59
2022/06/18 13:42:09;;;;;;;7.40;4.40;;;;;;;30.67;31.73;99260.60;235941;1203;140826;-58
2022/06/18 13:47:53;;;;;;;4.70;1.50;;;;;;;30.68;31.82;99258.95;235891;1202;138792;-58
2022/06/18 13:52:56;;;;;;;1.90;1.30;;;;;;;30.75;31.28;99255.96;235356;1207;138697;-58
2022/06/18 13:58:01;;;;;;;2.50;1.40;;;;;;;30.78;31.21;99248.01;235881;1203;139949;-58
2022/06/18 14:03:09;;;;;;;3.90;1.10;;;;;;;30.84;31.11;99250.18;236006;1202;139533;-58
2022/06/18 14:08:22;;;;;;;17.60;15.80;;;;;;;30.83;31.03;99234.20;235917;1203;138860;-60
2022/06/18 14:13:26;;;;;;;7.40;4.50;;;;;;;30.85;31.19;99232.20;235010;1202;138781;-56
2022/06/18 14:18:32;;;;;;;2.80;1.50;;;;;;;30.81;31.05;99226.01;235964;1202;139972;-59
2022/06/18 14:23:39;;;;;;;2.20;1.80;;;;;;;30.76;31.07;99223.21;235961;1203;138981;-58
2022/06/18 14:28:45;;;;;;;3.10;1.40;;;;;;;30.64;31.13;99214.38;236069;1203;138692;-56
2022/06/18 14:34:01;;;;;;;2.70;1.70;;;;;;;30.54;31.30;99221.63;235676;1203;139564;-58
2022/06/18 14:39:33;;;;;;;142.90;110.50;;;;;;;30.37;31.07;99207.86;235937;1202;138882;-58
2022/06/18 14:44:45;;;;;;;5.80;3.90;;;;;;;30.17;31.36;99207.58;235858;1202;140861;-59
2022/06/18 14:50:05;;;;;;;3.80;2.70;;;;;;;29.99;31.49;99204.73;235953;1201;139674;-59
2022/06/18 14:55:32;;;;;;;3.40;2.30;;;;;;;29.81;31.72;99198.98;235886;1202;138874;-58
2022/06/18 15:00:47;;;;;;;4.50;2.30;;;;;;;29.63;31.82;99182.98;235949;1202;139685;-57
2022/06/18 15:06:06;;;;;;;3.00;1.30;;;;;;;29.48;31.96;99178.61;235904;1203;138644;-56
2022/06/18 15:11:16;;;;;;;4.10;3.10;;;;;;;29.33;32.04;99168.09;235923;1202;140885;-57
2022/06/18 15:16:32;;;;;;;2.70;1.20;;;;;;;29.15;31.89;99166.59;234498;1201;139735;-54
2022/06/18 15:26:47;;;;;;;67.80;51.90;;;;;;;28.82;31.98;99157.58;235858;1202;140017;-56
2022/06/18 15:32:20;;;;;;;4.20;1.60;;;;;;;28.70;31.92;99158.83;235670;1203;139626;-56
2022/06/18 15:37:23;;;;;;;2.90;1.30;;;;;;;28.55;32.13;99145.38;235974;1202;139385;-56
2022/06/18 15:42:39;;;;;;;3.80;1.60;;;;;;;28.47;32.43;99137.88;235941;1203;138890;-57
2022/06/18 15:47:42;;;;;;;9.80;3.30;;;;;;;28.35;32.65;99128.10;235952;1203;138619;-56
2022/06/18 15:52:45;;;;;;;59.30;47.20;;;;;;;28.29;32.89;99118.31;236064;1202;139120;-57
2022/06/18 15:57:49;;;;;;;4.80;3.30;;;;;;;28.25;33.03;99112.90;235846;1203;139421;-58
2022/06/18 16:02:53;;;;;;;2.20;1.60;;;;;;;28.20;33.09;99108.40;236056;1202;139887;-57
2022/06/18 16:07:59;;;;;;;53.00;45.40;;;;;;;28.17;33.34;99105.23;235038;1203;138989;-55
2022/06/18 16:13:26;;;;;;;9.30;5.90;;;;;;;28.14;33.50;99104.00;235815;1203;139125;-58
2022/06/18 16:18:34;;;;;;;2.40;1.80;;;;;;;28.07;33.56;99104.40;235918;1202;139000;-57
2022/06/18 16:23:40;;;;;;;3.60;2.00;;;;;;;28.03;33.70;99110.33;235188;1203;138728;-56
2022/06/18 16:28:43;;;;;;;3.60;1.50;;;;;;;27.96;33.85;99102.48;235957;1203;138743;-55
2022/06/18 16:33:49;;;;;;;3.60;1.40;;;;;;;27.95;33.95;99105.23;235834;1203;139695;-55
2022/06/18 16:38:51;;;;;;;3.70;1.60;;;;;;;27.92;34.10;99106.80;235878;1203;138874;-57
2022/06/18 16:43:54;;;;;;;2.00;1.50;;;;;;;27.90;34.05;99099.34;235795;1203;141529;-56
2022/06/18 16:49:00;;;;;;;3.30;1.70;;;;;;;27.84;34.22;99091.23;235786;1203;138929;-56
2022/06/18 16:54:08;;;;;;;2.90;1.60;;;;;;;27.80;34.23;99090.46;235852;1202;139640;-56
2022/06/18 16:59:11;;;;;;;4.50;1.60;;;;;;;27.78;34.42;99089.63;235800;1203;140732;-55
2022/06/18 17:04:16;;;;;;;2.30;1.70;;;;;;;27.74;34.56;99090.67;235986;1203;138811;-56
2022/06/18 17:09:19;;;;;;;3.20;1.70;;;;;;;27.70;34.60;99083.58;235760;1203;138827;-57
2022/06/18 17:14:25;;;;;;;214.90;168.90;;;;;;;27.70;34.65;99086.66;235798;1203;138479;-56
2022/06/18 17:19:28;;;;;;;8.30;6.10;;;;;;;27.66;34.79;99079.58;235928;1202;139902;-56
2022/06/18 17:35:15;;;;;;;6.70;2.90;;;;;;;27.56;34.92;99082.06;235762;1202;140276;-57
2022/06/18 17:40:18;;;;;;;2.00;1.70;;;;;;;27.53;34.86;99078.56;235892;1203;138915;-57
2022/06/18 17:45:22;;;;;;;8.70;5.40;;;;;;;27.53;35.03;99082.16;235509;1203;139645;-57
2022/06/18 17:50:26;;;;;;;10.20;5.50;;;;;;;27.50;35.02;99081.79;235729;1203;139355;-56
2022/06/18 17:55:29;;;;;;;3.80;2.60;;;;;;;27.46;35.03;99079.28;235772;1203;139810;-56
2022/06/18 18:00:34;;;;;;;4.60;2.40;;;;;;;27.44;35.04;99078.80;235871;1203;139451;-55
2022/06/18 18:05:37;;;;;;;;;;;;;;;27.40;35.40;99077.21;235873;1203;139480;-55
2022/06/18 18:10:41;;;;;;;2.90;2.00;;;;;;;27.27;35.68;99074.05;235918;1203;125598;-55
2022/06/18 18:15:45;;;;;;;5.10;2.70;;;;;;;27.21;35.80;99079.15;235783;1201;139865;-57
2022/06/18 18:20:48;;;;;;;5.20;2.90;;;;;;;27.10;36.15;99083.98;235768;1203;139568;-56
2022/06/18 18:25:51;;;;;;;5.70;2.80;;;;;;;26.96;36.45;99091.69;235727;1203;139620;-56
2022/06/18 18:30:54;;;;;;;7.90;2.90;;;;;;;26.82;36.76;99088.94;235671;1203;140532;-56
2022/06/18 18:35:57;;;;;;;4.70;3.20;;;;;;;26.69;37.15;99083.71;235735;1203;139835;-57
2022/06/18 18:41:01;;;;;;;151.30;135.30;;;;;;;26.54;37.53;99095.44;235859;1203;138793;-54
2022/06/18 18:46:04;;;;;;;19.40;14.50;;;;;;;26.41;38.06;99104.63;235782;1203;142048;-57
2022/06/18 18:51:07;;;;;;;12.90;5.50;;;;;;;26.33;38.20;99105.58;235670;1203;139745;-56
2022/06/18 18:56:13;;;;;;;8.90;2.90;;;;;;;26.23;38.21;99106.83;235486;1202;139153;-56
2022/06/18 19:01:20;;;;;;;199.80;159.00;;;;;;;26.09;38.51;99112.52;235742;1203;140130;-56
2022/06/18 19:06:23;;;;;;;11.40;6.20;;;;;;;25.94;38.97;99109.31;235779;1203;140226;-56
2022/06/18 19:11:28;;;;;;;8.20;3.70;;;;;;;25.81;39.42;99121.75;235810;1203;139385;-56
2022/06/18 19:16:31;;;;;;;8.50;3.20;;;;;;;25.68;39.70;99125.50;234900;1203;138880;-53
2022/06/18 19:21:34;;;;;;;8.40;2.90;;;;;;;25.57;39.87;99125.10;235712;1204;139905;-57
2022/06/18 19:26:37;;;;;;;8.90;3.40;;;;;;;25.43;40.27;99134.77;235702;1203;139849;-56
2022/06/18 19:31:41;;;;;;;14.10;3.70;;;;;;;25.26;40.41;99129.55;235649;1203;139120;-56
2022/06/18 19:36:49;;;;;;;8.30;3.00;;;;;;;25.09;40.95;99129.27;235761;1204;139785;-55
2022/06/18 19:41:52;;;;;;;8.60;3.10;;;;;;;24.93;41.24;99123.91;235751;1203;138442;-56
2022/06/18 19:46:55;;;;;;;7.60;3.80;;;;;;;24.79;41.53;99120.33;235835;1204;138371;-53
2022/06/18 19:52:00;;;;;;;10.50;3.60;;;;;;;24.62;41.92;99114.63;235336;1203;138605;-54
2022/06/18 19:57:23;;;;;;;8.90;3.60;;;;;;;24.47;42.35;99120.15;235776;1202;138755;-54
2022/06/18 20:02:26;;;;;;;9.80;3.60;;;;;;;24.36;42.71;99116.54;235617;1204;139706;-53
2022/06/18 20:07:30;;;;;;;8.60;3.70;;;;;;;24.25;43.02;99117.72;235823;1202;138905;-54
2022/06/18 20:12:39;;;;;;;10.50;3.70;;;;;;;24.14;43.21;99120.57;235840;1203;139498;-54
2022/06/18 20:17:42;;;;;;;8.10;4.00;;;;;;;24.02;43.68;99116.37;235731;1203;139018;-55
2022/06/18 20:22:46;;;;;;;7.20;3.80;;;;;;;23.89;44.05;99116.83;235478;1203;139412;-59
2022/06/18 20:27:50;;;;;;;8.70;3.90;;;;;;;23.77;44.24;99126.36;235704;1204;138883;-57
2022/06/18 20:32:54;;;;;;;7.90;3.60;;;;;;;23.68;44.48;99126.02;235696;1203;138840;-57
2022/06/18 20:37:58;;;;;;;10.20;3.90;;;;;;;23.55;44.83;99114.75;235126;1202;138835;-56
2022/06/18 20:43:01;;;;;;;9.80;4.20;;;;;;;23.45;45.17;99120.73;235705;1204;139049;-56
2022/06/18 20:48:05;;;;;;;9.80;4.30;;;;;;;23.34;45.51;99121.48;235726;1203;138826;-57
2022/06/18 20:53:08;;;;;;;12.40;4.40;;;;;;;23.21;45.93;99124.41;235785;1204;138891;-58
2022/06/18 20:58:11;;;;;;;12.90;4.30;;;;;;;23.11;46.22;99118.36;235687;1204;139120;-59
2022/06/18 21:03:14;;;;;;;9.90;4.30;;;;;;;23.05;46.46;99119.34;235349;1203;139522;-57
2022/06/18 21:08:18;;;;;;;9.90;4.40;;;;;;;23.17;46.38;99115.67;235651;1203;139040;-58
2022/06/18 21:13:22;;;;;;;9.40;5.50;;;;;;;23.33;46.33;99106.98;235683;1203;139951;-58
2022/06/18 21:18:25;;;;;;;12.20;4.50;;;;;;;23.48;46.08;99105.91;235522;1203;139869;-56
2022/06/18 21:23:29;;;;;;;9.60;4.10;;;;;;;23.55;46.26;99100.75;235664;1204;138938;-56
2022/06/18 21:28:32;;;;;;;8.30;4.70;;;;;;;23.46;46.35;99106.19;235735;1204;138884;-59
2022/06/18 21:38:57;;;;;;;11.90;5.70;;;;;;;23.14;47.03;99104.98;233867;1204;138416;-55
2022/06/18 21:44:01;;;;;;;14.90;5.70;;;;;;;22.97;47.52;99106.89;235131;1203;138732;-55
2022/06/18 21:49:06;;;;;;;9.70;5.90;;;;;;;22.80;48.03;99109.67;235639;1203;140458;-55
2022/06/18 21:54:10;;;;;;;;;;;;;;;22.64;48.23;99099.52;235672;1204;138933;-56
2022/06/18 21:59:13;;;;;;;13.00;5.90;;;;;;;22.46;48.70;99104.58;235774;1203;125518;-57
2022/06/18 22:04:20;;;;;;;12.90;6.20;;;;;;;22.32;48.99;99106.73;235858;1204;140840;-55
2022/06/18 22:09:23;;;;;;;10.40;5.90;;;;;;;22.19;49.21;99105.39;235659;1203;139419;-56
2022/06/18 22:19:48;;;;;;;11.70;6.30;;;;;;;21.94;49.82;99108.24;234166;1203;140410;-55
2022/06/18 22:24:55;;;;;;;11.40;5.60;;;;;;;21.82;49.97;99105.38;235721;1203;138864;-58
2022/06/18 22:30:01;;;;;;;12.20;6.60;;;;;;;21.71;50.27;99113.04;235035;1204;138775;-56
2022/06/18 22:35:05;;;;;;;8.70;6.20;;;;;;;21.61;50.59;99114.86;235474;1204;138960;-57
2022/06/18 22:40:09;;;;;;;9.40;5.90;;;;;;;21.52;50.89;99116.75;235709;1203;138849;-58
2022/06/18 22:45:14;;;;;;;10.00;5.80;;;;;;;21.43;51.14;99116.41;235399;1203;138792;-58
2022/06/18 22:50:22;;;;;;;12.30;5.80;;;;;;;21.37;51.44;99117.09;234983;1203;139761;-54
2022/06/18 22:55:25;;;;;;;12.10;5.80;;;;;;;21.29;51.59;99120.28;235674;1203;139113;-54
2022/06/18 23:00:28;;;;;;;12.80;6.10;;;;;;;21.21;51.95;99120.46;235676;1203;140090;-56
2022/06/18 23:05:35;;;;;;;11.00;6.20;;;;;;;21.15;52.13;99123.00;235687;1203;139651;-55
2022/06/18 23:10:42;;;;;;;14.20;6.10;;;;;;;21.10;52.34;99123.72;235859;1203;138734;-55
2022/06/18 23:15:46;;;;;;;14.90;5.80;;;;;;;21.02;52.50;99123.74;233949;1203;138863;-57
2022/06/18 23:20:54;;;;;;;11.40;6.30;;;;;;;20.94;52.69;99132.86;235710;1203;139566;-58
2022/06/18 23:25:57;;;;;;;12.20;6.30;;;;;;;20.86;52.90;99129.99;235494;1203;140240;-54
2022/06/18 23:31:00;;;;;;;8.90;5.80;;;;;;;20.77;53.15;99131.05;234578;1203;138905;-56
2022/06/18 23:36:04;;;;;;;9.70;5.60;;;;;;;20.72;53.33;99124.33;235813;1203;139766;-58
2022/06/18 23:41:07;;;;;;;13.00;6.00;;;;;;;20.72;53.64;99125.27;235884;1203;139614;-57
2022/06/18 23:46:11;;;;;;;10.80;6.10;;;;;;;20.73;53.75;99127.84;235657;1203;139316;-56
2022/06/18 23:51:15;;;;;;;13.00;6.40;;;;;;;20.69;53.84;99123.05;234199;1203;139143;-54
2022/06/18 23:56:18;;;;;;;10.10;6.40;;;;;;;20.64;53.98;99121.05;235702;1203;139829;-56
